Time;durP1;ratioP1;P1;durP2;ratioP2;P2;SDS_P1;SDS_P2;PMS_P1;PMS_P2;Temp;Humidity;BMP_temperature;BMP_pressure;BME280_temperature;BME280_humidity;BME280_pressure;Samples;Min_cycle;Max_cycle;Signal;HPM_P1;HPM_P2
2023/06/10 04:57:26;;;;;;;13.02;10.75;;;;;;;;;;9721387;23;20045;-91
2023/06/10 05:39:07;;;;;;;27.70;24.90;;;;;;;;;;8401344;27;1559998;-90
2023/06/10 05:43:11;;;;;;;37.88;33.92;;;;;;;;;;8437047;28;20471;-91
2023/06/10 05:47:17;;;;;;;10.02;8.75;;;;;;;;;;8423206;28;20509;-91
2023/06/10 05:51:20;;;;;;;11.65;9.25;;;;;;;;;;8433742;28;20056;-90
2023/06/10 05:55:24;;;;;;;11.73;8.43;;;;;;;;;;8434713;28;20036;-90
2023/06/10 05:59:27;;;;;;;13.20;10.25;;;;;;;;;;8432766;28;20430;-90
2023/06/10 06:03:31;;;;;;;12.77;10.18;;;;;;;;;;8430140;28;20051;-90
2023/06/10 06:07:34;;;;;;;11.77;9.02;;;;;;;;;;8433027;28;20044;-90
2023/06/10 06:11:39;;;;;;;12.05;9.23;;;;;;;;;;8440928;28;20082;-90
2023/06/10 06:15:42;;;;;;;12.75;9.15;;;;;;;;;;8421361;28;20048;-90
2023/06/10 06:19:47;;;;;;;12.50;9.27;;;;;;;;;;8446947;28;20039;-90
2023/06/10 06:23:50;;;;;;;10.57;8.38;;;;;;;;;;8418944;28;20482;-90
2023/06/10 06:27:55;;;;;;;9.70;8.02;;;;;;;;;;8436831;28;20063;-92
2023/06/10 06:31:58;;;;;;;17.48;9.48;;;;;;;;;;8442313;28;20134;-92
2023/06/10 06:36:02;;;;;;;11.13;7.78;;;;;;;;;;8447169;28;20134;-91
2023/06/10 06:40:08;;;;;;;10.25;8.57;;;;;;;;;;8423258;28;20051;-91
2023/06/10 06:44:13;;;;;;;16.38;9.95;;;;;;;;;;8413826;28;20044;-92
2023/06/10 06:48:16;;;;;;;10.05;8.18;;;;;;;;;;8432073;28;20067;-92
2023/06/10 06:52:20;;;;;;;10.10;8.05;;;;;;;;;;8425793;28;20141;-92
2023/06/10 06:56:24;;;;;;;17.40;10.73;;;;;;;;;;8423803;28;20177;-92
2023/06/10 07:00:28;;;;;;;15.18;9.50;;;;;;;;;;8414868;28;20040;-91
2023/06/10 07:04:31;;;;;;;21.27;11.50;;;;;;;;;;8405639;28;20048;-92
2023/06/10 07:08:35;;;;;;;15.40;9.63;;;;;;;;;;8410895;28;20549;-92
2023/06/10 07:12:38;;;;;;;14.05;8.75;;;;;;;;;;8426691;28;20122;-92
2023/06/10 07:16:45;;;;;;;9.95;7.35;;;;;;;;;;8433265;28;20039;-92
2023/06/10 07:20:48;;;;;;;9.70;7.95;;;;;;;;;;8428760;28;20048;-93
2023/06/10 07:24:54;;;;;;;39.97;18.77;;;;;;;;;;8419925;28;20121;-91
2023/06/10 07:28:57;;;;;;;10.43;7.38;;;;;;;;;;8423627;28;20055;-91
2023/06/10 07:33:02;;;;;;;12.27;8.48;;;;;;;;;;8396559;28;20536;-92
2023/06/10 07:37:07;;;;;;;12.70;8.23;;;;;;;;;;8430421;28;20533;-91
2023/06/10 07:41:11;;;;;;;9.93;6.95;;;;;;;;;;8406157;28;20037;-90
2023/06/10 07:45:45;;;;;;;11.93;8.30;;;;;;;;;;8405569;28;20044;-94
2023/06/10 07:49:50;;;;;;;11.30;7.82;;;;;;;;;;8363349;28;20053;-90
2023/06/10 07:53:53;;;;;;;10.93;6.63;;;;;;;;;;8406161;28;20127;-89
2023/06/10 07:57:57;;;;;;;13.60;8.43;;;;;;;;;;8417439;28;20048;-89
2023/06/10 08:02:00;;;;;;;11.80;7.30;;;;;;;;;;8401787;28;20060;-89
2023/06/10 08:06:05;;;;;;;8.02;6.50;;;;;;;;;;8373571;28;20560;-88
2023/06/10 08:10:12;;;;;;;8.30;7.00;;;;;;;;;;8423068;28;20119;-88
2023/06/10 08:14:15;;;;;;;12.85;7.32;;;;;;;;;;8426551;28;20131;-88
2023/06/10 08:18:18;;;;;;;12.50;7.55;;;;;;;;;;8426503;28;20068;-89
2023/06/10 08:22:23;;;;;;;8.38;6.50;;;;;;;;;;8400792;28;20064;-89
2023/06/10 08:26:29;;;;;;;7.93;5.95;;;;;;;;;;8393946;28;21577;-89
2023/06/10 08:30:35;;;;;;;9.00;6.43;;;;;;;;;;8406010;28;20135;-90
2023/06/10 08:34:47;;;;;;;6.85;5.05;;;;;;;;;;8418245;28;20055;-90
2023/06/10 08:38:53;;;;;;;10.20;5.82;;;;;;;;;;8437342;28;20064;-90
2023/06/10 08:43:25;;;;;;;10.05;4.57;;;;;;;;;;8424807;28;20059;-89
2023/06/10 08:47:32;;;;;;;8.55;5.75;;;;;;;;;;8415468;28;20070;-89
2023/06/10 08:51:47;;;;;;;7.25;4.65;;;;;;;;;;8432419;28;20048;-89
2023/06/10 08:55:53;;;;;;;8.20;5.03;;;;;;;;;;8432405;28;20051;-90
2023/06/10 09:00:03;;;;;;;7.20;4.78;;;;;;;;;;8439816;28;20027;-90
2023/06/10 09:04:20;;;;;;;6.03;4.60;;;;;;;;;;8358156;28;20032;-89
2023/06/10 09:08:26;;;;;;;8.10;4.72;;;;;;;;;;8393530;28;20056;-91
2023/06/10 09:12:31;;;;;;;8.05;5.18;;;;;;;;;;8406785;28;20048;-90
2023/06/10 09:16:43;;;;;;;6.38;4.80;;;;;;;;;;8426996;28;20052;-90
2023/06/10 09:20:47;;;;;;;16.17;9.43;;;;;;;;;;8449555;28;20035;-90
2023/06/10 09:24:52;;;;;;;8.00;4.95;;;;;;;;;;8413647;28;20032;-89
2023/06/10 09:29:04;;;;;;;9.85;5.38;;;;;;;;;;8395056;28;20702;-89
2023/06/10 09:33:13;;;;;;;6.82;5.70;;;;;;;;;;8389561;28;20411;-90
2023/06/10 09:37:25;;;;;;;6.70;5.53;;;;;;;;;;8387174;28;20060;-89
2023/06/10 09:41:34;;;;;;;7.50;5.35;;;;;;;;;;8373537;28;20409;-90
2023/06/10 09:45:44;;;;;;;8.70;5.72;;;;;;;;;;8376337;28;20068;-90
2023/06/10 09:49:47;;;;;;;8.20;6.43;;;;;;;;;;8371638;28;20091;-90
2023/06/10 09:53:52;;;;;;;7.25;6.15;;;;;;;;;;8380220;28;20083;-91
2023/06/10 09:58:00;;;;;;;8.13;6.10;;;;;;;;;;8378660;28;20484;-90
2023/06/10 10:02:15;;;;;;;7.77;5.83;;;;;;;;;;8381757;28;20059;-90
2023/06/10 10:06:19;;;;;;;7.53;5.90;;;;;;;;;;8395023;28;20099;-89
2023/06/10 10:10:22;;;;;;;7.63;5.28;;;;;;;;;;8415204;28;20044;-90
2023/06/10 10:14:27;;;;;;;8.00;6.05;;;;;;;;;;8431685;28;20127;-90
2023/06/10 10:18:33;;;;;;;13.73;8.13;;;;;;;;;;8414840;28;20054;-90
2023/06/10 10:22:40;;;;;;;8.40;6.18;;;;;;;;;;8414677;28;20132;-90
2023/06/10 10:26:54;;;;;;;6.97;5.45;;;;;;;;;;8409680;28;20067;-92
2023/06/10 10:31:03;;;;;;;7.03;5.18;;;;;;;;;;8403081;28;20073;-92
2023/06/10 10:35:18;;;;;;;8.98;6.18;;;;;;;;;;8394724;28;20067;-91
2023/06/10 10:39:23;;;;;;;8.30;6.90;;;;;;;;;;8396337;28;20052;-90
2023/06/10 10:43:30;;;;;;;7.00;6.13;;;;;;;;;;8417025;28;20050;-90
2023/06/10 10:47:35;;;;;;;19.35;14.88;;;;;;;;;;8422124;28;20040;-88
2023/06/10 10:51:56;;;;;;;8.27;5.95;;;;;;;;;;8426690;28;20044;-89
2023/06/10 10:56:00;;;;;;;13.60;9.45;;;;;;;;;;8432204;28;20045;-91
2023/06/10 11:00:04;;;;;;;9.05;6.60;;;;;;;;;;8430126;28;20117;-89
2023/06/10 11:04:09;;;;;;;9.50;6.45;;;;;;;;;;8436596;28;20070;-87
2023/06/10 11:08:15;;;;;;;9.27;6.35;;;;;;;;;;8438378;28;20553;-88
2023/06/10 11:12:24;;;;;;;34.88;25.10;;;;;;;;;;8430569;28;20080;-89
2023/06/10 11:16:30;;;;;;;13.00;10.52;;;;;;;;;;8428734;28;20066;-90
2023/06/10 11:20:51;;;;;;;16.20;11.63;;;;;;;;;;8435704;28;20047;-91
2023/06/10 11:24:58;;;;;;;8.10;6.82;;;;;;;;;;8433637;28;20132;-88
2023/06/10 11:29:11;;;;;;;10.27;6.85;;;;;;;;;;8436507;28;20516;-88
2023/06/10 11:33:18;;;;;;;10.30;8.02;;;;;;;;;;8432772;28;20052;-94
2023/06/10 11:37:22;;;;;;;12.43;6.90;;;;;;;;;;8407651;28;20139;-95
2023/06/10 11:41:27;;;;;;;10.13;6.97;;;;;;;;;;8425417;28;20109;-93
2023/06/10 11:45:33;;;;;;;10.10;8.05;;;;;;;;;;8432960;28;20047;-95
2023/06/10 11:49:36;;;;;;;8.02;6.22;;;;;;;;;;8422550;28;20047;-94
2023/06/10 11:53:40;;;;;;;8.75;5.97;;;;;;;;;;8408051;28;20074;-94
2023/06/10 11:57:43;;;;;;;7.30;5.63;;;;;;;;;;8421084;28;20050;-94
2023/06/10 12:01:47;;;;;;;8.45;5.70;;;;;;;;;;8434302;28;20064;-94
2023/06/10 12:05:58;;;;;;;6.75;5.43;;;;;;;;;;8423289;28;20420;-94
2023/06/10 12:10:01;;;;;;;6.38;5.32;;;;;;;;;;8418947;28;20399;-93
2023/06/10 12:14:05;;;;;;;6.22;4.57;;;;;;;;;;8422066;28;20048;-93
2023/06/10 12:18:16;;;;;;;6.05;4.53;;;;;;;;;;8393691;28;20099;-94
2023/06/10 12:22:20;;;;;;;5.93;4.65;;;;;;;;;;8421602;28;20051;-92
2023/06/10 12:26:36;;;;;;;6.85;4.80;;;;;;;;;;8432618;28;20047;-92
2023/06/10 12:30:40;;;;;;;5.95;3.38;;;;;;;;;;8408674;28;20040;-92
2023/06/10 12:34:43;;;;;;;6.13;3.30;;;;;;;;;;8412211;28;20048;-91
2023/06/10 12:38:51;;;;;;;4.82;3.40;;;;;;;;;;8412664;28;20060;-93
2023/06/10 12:42:56;;;;;;;4.50;3.30;;;;;;;;;;8424236;28;20083;-92
2023/06/10 12:47:00;;;;;;;5.15;3.50;;;;;;;;;;8409715;28;20110;-88
2023/06/10 12:51:05;;;;;;;4.90;3.28;;;;;;;;;;8399277;28;20051;-91
2023/06/10 12:55:11;;;;;;;7.32;3.83;;;;;;;;;;8417371;28;20044;-93
2023/06/10 12:59:24;;;;;;;5.45;3.25;;;;;;;;;;8371595;28;20514;-90
2023/06/10 13:03:32;;;;;;;4.10;2.92;;;;;;;;;;8375858;28;20132;-91
2023/06/10 13:07:35;;;;;;;8.80;3.70;;;;;;;;;;8387231;28;20593;-90
2023/06/10 13:11:41;;;;;;;5.78;3.50;;;;;;;;;;8393732;28;20045;-90
2023/06/10 13:15:49;;;;;;;5.47;3.53;;;;;;;;;;8393083;28;20044;-88
2023/06/10 13:20:13;;;;;;;4.75;3.13;;;;;;;;;;8375026;28;20053;-88
2023/06/10 13:24:20;;;;;;;5.35;3.28;;;;;;;;;;8397409;28;20051;-89
2023/06/10 13:28:25;;;;;;;5.93;3.78;;;;;;;;;;8378089;28;20053;-88
2023/06/10 13:32:29;;;;;;;4.60;3.28;;;;;;;;;;8390051;28;20072;-89
2023/06/10 13:36:34;;;;;;;5.93;3.58;;;;;;;;;;8369740;28;20069;-89
2023/06/10 13:40:39;;;;;;;5.35;3.58;;;;;;;;;;8400532;28;20048;-90
2023/06/10 13:44:47;;;;;;;6.15;3.70;;;;;;;;;;8343094;28;20496;-90
2023/06/10 13:48:50;;;;;;;4.55;3.58;;;;;;;;;;8394560;28;20154;-90
2023/06/10 13:53:08;;;;;;;4.05;3.40;;;;;;;;;;8397733;28;20496;-91
2023/06/10 13:57:13;;;;;;;5.90;4.00;;;;;;;;;;8384809;28;20102;-89
2023/06/10 14:01:17;;;;;;;6.15;3.80;;;;;;;;;;8392977;28;20056;-90
2023/06/10 14:05:20;;;;;;;6.95;3.92;;;;;;;;;;8400176;28;20399;-90
2023/06/10 14:09:25;;;;;;;5.70;3.92;;;;;;;;;;8415653;28;20083;-89
2023/06/10 14:13:30;;;;;;;7.65;4.40;;;;;;;;;;8407219;28;20044;-89
2023/06/10 14:17:33;;;;;;;7.22;5.13;;;;;;;;;;8422544;28;20074;-89
2023/06/10 14:21:39;;;;;;;5.60;3.85;;;;;;;;;;8429826;28;20044;-91
2023/06/10 14:25:43;;;;;;;4.63;3.72;;;;;;;;;;8430098;28;20090;-89
2023/06/10 14:29:46;;;;;;;5.60;3.42;;;;;;;;;;8429403;28;20080;-89
2023/06/10 14:33:49;;;;;;;5.57;3.63;;;;;;;;;;8415767;28;20052;-89
2023/06/10 14:37:53;;;;;;;4.57;3.45;;;;;;;;;;8436401;28;20113;-88
2023/06/10 14:41:57;;;;;;;4.85;3.60;;;;;;;;;;8422070;28;20054;-89
2023/06/10 14:46:00;;;;;;;5.88;3.45;;;;;;;;;;8417296;28;20078;-89
2023/06/10 14:50:03;;;;;;;6.70;3.40;;;;;;;;;;8426698;28;20052;-90
2023/06/10 14:54:06;;;;;;;5.50;3.25;;;;;;;;;;8411219;28;20065;-91
2023/06/10 14:58:10;;;;;;;5.20;2.80;;;;;;;;;;8406150;28;20063;-89
2023/06/10 15:02:13;;;;;;;3.63;2.70;;;;;;;;;;8401075;28;20479;-90
2023/06/10 15:06:20;;;;;;;4.40;3.42;;;;;;;;;;8407076;28;20052;-91
2023/06/10 15:10:26;;;;;;;3.78;2.58;;;;;;;;;;8400178;28;20049;-89
2023/06/10 15:14:37;;;;;;;5.68;3.30;;;;;;;;;;8405336;28;20100;-90
2023/06/10 15:18:41;;;;;;;4.70;3.13;;;;;;;;;;8402040;28;20049;-91
2023/06/10 15:22:45;;;;;;;6.70;3.30;;;;;;;;;;8401876;28;20044;-89
2023/06/10 15:26:48;;;;;;;6.93;3.88;;;;;;;;;;8397018;28;20119;-90
2023/06/10 15:30:53;;;;;;;7.78;4.40;;;;;;;;;;8388266;28;20064;-88
2023/06/10 15:34:56;;;;;;;4.88;3.72;;;;;;;;;;8410822;28;20454;-90
2023/06/10 15:39:03;;;;;;;5.55;3.30;;;;;;;;;;8421298;28;20142;-89
2023/06/10 15:43:05;;;;;;;6.57;3.90;;;;;;;;;;8421288;28;20071;-88
2023/06/10 15:47:10;;;;;;;6.55;3.65;;;;;;;;;;8427532;28;20048;-88
2023/06/10 15:51:13;;;;;;;5.22;3.58;;;;;;;;;;8423481;28;20044;-88
2023/06/10 15:55:16;;;;;;;4.90;3.30;;;;;;;;;;8428897;28;20123;-90
2023/06/10 15:59:19;;;;;;;4.45;3.47;;;;;;;;;;8400843;28;20048;-89
2023/06/10 16:03:25;;;;;;;6.00;3.83;;;;;;;;;;8392316;28;20040;-88
2023/06/10 16:07:32;;;;;;;6.20;3.70;;;;;;;;;;8390944;28;20079;-88
2023/06/10 16:11:38;;;;;;;11.23;5.30;;;;;;;;;;8360658;28;20072;-89
2023/06/10 16:15:42;;;;;;;6.30;4.45;;;;;;;;;;8406691;28;20104;-89
2023/06/10 16:19:53;;;;;;;5.60;3.92;;;;;;;;;;8404550;28;20049;-89
2023/06/10 16:23:56;;;;;;;5.40;3.83;;;;;;;;;;8394411;28;20143;-89
2023/06/10 16:27:59;;;;;;;5.22;4.00;;;;;;;;;;8396891;28;20504;-89
2023/06/10 16:32:04;;;;;;;6.45;4.00;;;;;;;;;;8381806;28;20057;-89
2023/06/10 16:36:10;;;;;;;6.95;3.97;;;;;;;;;;8401651;28;20068;-89
2023/06/10 16:40:14;;;;;;;9.57;7.03;;;;;;;;;;8415831;28;20142;-88
2023/06/10 16:44:18;;;;;;;8.23;7.20;;;;;;;;;;8405357;28;20052;-88
2023/06/10 16:48:23;;;;;;;16.70;15.00;;;;;;;;;;8402214;28;20041;-88
2023/06/10 16:52:29;;;;;;;22.02;19.00;;;;;;;;;;8401354;28;20128;-89
2023/06/10 16:56:32;;;;;;;13.85;12.38;;;;;;;;;;8391477;28;20045;-89
2023/06/10 17:00:40;;;;;;;7.82;6.75;;;;;;;;;;8391233;28;20055;-88
2023/06/10 17:04:44;;;;;;;10.32;7.22;;;;;;;;;;8398032;28;20055;-88
2023/06/10 17:08:55;;;;;;;38.17;19.95;;;;;;;;;;8402287;28;20121;-88
2023/06/10 17:13:01;;;;;;;67.68;26.25;;;;;;;;;;8398759;28;20048;-89
2023/06/10 17:17:07;;;;;;;90.40;36.10;;;;;;;;;;8398486;28;20048;-88
2023/06/10 17:21:12;;;;;;;17.48;9.65;;;;;;;;;;8367546;28;20087;-88
2023/06/10 17:25:18;;;;;;;11.50;7.10;;;;;;;;;;8394453;28;20068;-88
2023/06/10 17:29:23;;;;;;;29.25;14.68;;;;;;;;;;8387855;28;20123;-88
2023/06/10 17:33:28;;;;;;;46.35;21.85;;;;;;;;;;8338565;28;20053;-88
2023/06/10 17:37:34;;;;;;;23.52;17.60;;;;;;;;;;8379506;28;20060;-88
2023/06/10 17:41:41;;;;;;;10.90;7.80;;;;;;;;;;8385035;28;20044;-89
2023/06/10 17:45:48;;;;;;;130.50;48.75;;;;;;;;;;8394863;28;20045;-93
2023/06/10 17:49:57;;;;;;;105.53;39.78;;;;;;;;;;8408029;28;20041;-89
2023/06/10 17:54:01;;;;;;;17.60;11.40;;;;;;;;;;8360326;28;20080;-91
2023/06/10 17:58:06;;;;;;;14.15;8.00;;;;;;;;;;8381261;28;20093;-93
2023/06/10 18:02:12;;;;;;;10.73;7.85;;;;;;;;;;8383501;28;20041;-92
2023/06/10 18:06:17;;;;;;;10.18;8.15;;;;;;;;;;8377818;28;20090;-94
2023/06/10 18:10:21;;;;;;;11.45;7.15;;;;;;;;;;8385919;28;20071;-92
2023/06/10 18:14:26;;;;;;;12.43;7.93;;;;;;;;;;8382070;28;20487;-92
2023/06/10 18:18:32;;;;;;;13.00;7.75;;;;;;;;;;8377899;28;20048;-89
2023/06/10 18:22:35;;;;;;;14.75;10.73;;;;;;;;;;8396688;28;20048;-91
2023/06/10 18:26:38;;;;;;;11.73;7.70;;;;;;;;;;8382352;28;20055;-90
2023/06/10 18:30:46;;;;;;;13.68;9.77;;;;;;;;;;8376215;28;20044;-91
2023/06/10 18:34:52;;;;;;;12.45;8.07;;;;;;;;;;8384178;28;20045;-90
2023/06/10 18:38:57;;;;;;;12.82;7.82;;;;;;;;;;8395596;28;20068;-90
2023/06/10 18:43:01;;;;;;;14.88;8.98;;;;;;;;;;8403917;28;20106;-92
2023/06/10 18:47:08;;;;;;;31.20;18.42;;;;;;;;;;8382009;28;20079;-91
2023/06/10 18:51:13;;;;;;;24.30;15.43;;;;;;;;;;8393583;28;20071;-90
2023/06/10 18:55:18;;;;;;;13.38;9.27;;;;;;;;;;8393731;28;20419;-91
2023/06/10 18:59:22;;;;;;;12.50;9.68;;;;;;;;;;8378135;28;20164;-91
2023/06/10 19:03:28;;;;;;;11.75;8.25;;;;;;;;;;8377865;28;20044;-90
2023/06/10 19:07:31;;;;;;;13.57;8.48;;;;;;;;;;8395821;28;20062;-91
2023/06/10 19:11:35;;;;;;;12.75;8.18;;;;;;;;;;8382822;28;20049;-90
2023/06/10 19:15:38;;;;;;;14.27;8.00;;;;;;;;;;8391050;28;20044;-90
2023/06/10 19:19:42;;;;;;;10.95;8.00;;;;;;;;;;8394061;28;20052;-92
2023/06/10 19:23:50;;;;;;;12.48;8.05;;;;;;;;;;8409604;28;20047;-90
2023/06/10 19:27:55;;;;;;;11.70;8.65;;;;;;;;;;8411012;28;20078;-90
2023/06/10 19:32:03;;;;;;;11.20;8.77;;;;;;;;;;8412417;28;20048;-91
2023/06/10 19:36:11;;;;;;;11.20;8.35;;;;;;;;;;8409776;28;20049;-90
2023/06/10 19:40:14;;;;;;;11.30;8.40;;;;;;;;;;8393796;28;20056;-90
2023/06/10 19:44:17;;;;;;;14.27;9.68;;;;;;;;;;8414093;28;20093;-90
2023/06/10 19:48:23;;;;;;;13.43;10.23;;;;;;;;;;8388340;28;20049;-90
2023/06/10 19:52:34;;;;;;;13.57;10.52;;;;;;;;;;8409737;28;20055;-90
2023/06/10 19:56:38;;;;;;;13.83;10.60;;;;;;;;;;8423000;28;20049;-90
2023/06/10 20:01:14;;;;;;;15.80;11.57;;;;;;;;;;8413933;28;20100;-90
2023/06/10 20:05:19;;;;;;;15.43;11.10;;;;;;;;;;8413725;28;20080;-90
2023/06/10 20:09:54;;;;;;;15.35;12.20;;;;;;;;;;8411121;28;20149;-90
2023/06/10 20:14:08;;;;;;;13.65;10.90;;;;;;;;;;8398343;28;20036;-90
2023/06/10 20:18:25;;;;;;;18.50;11.80;;;;;;;;;;8396809;28;20044;-90
2023/06/10 20:22:31;;;;;;;17.08;11.88;;;;;;;;;;8398087;28;20052;-92
2023/06/10 20:27:14;;;;;;;17.67;12.38;;;;;;;;;;8402136;28;20045;-90
2023/06/10 20:31:37;;;;;;;17.35;12.60;;;;;;;;;;8391565;28;20052;-89
2023/06/10 20:35:52;;;;;;;15.95;11.82;;;;;;;;;;8391300;28;20036;-90
2023/06/10 20:40:24;;;;;;;16.42;11.57;;;;;;;;;;8375345;28;20057;-90
2023/06/10 20:44:37;;;;;;;15.15;12.20;;;;;;;;;;8346404;28;20107;-90
2023/06/10 20:49:08;;;;;;;16.80;12.05;;;;;;;;;;8353438;28;20042;-90
2023/06/10 20:57:42;;;;;;;17.27;11.52;;;;;;;;;;8289653;28;20080;-89
2023/06/10 21:01:48;;;;;;;17.88;13.13;;;;;;;;;;8341256;28;20118;-89
2023/06/10 21:05:50;;;;;;;18.85;13.63;;;;;;;;;;8323064;28;20152;-88
2023/06/10 21:09:53;;;;;;;21.70;14.32;;;;;;;;;;8349334;28;20390;-89
2023/06/10 21:13:56;;;;;;;22.05;15.70;;;;;;;;;;8347901;28;20045;-91
2023/06/10 21:18:06;;;;;;;19.20;13.65;;;;;;;;;;8336398;28;20550;-90
2023/06/10 21:22:10;;;;;;;17.42;12.93;;;;;;;;;;8344151;28;20053;-90
2023/06/10 21:26:17;;;;;;;17.38;12.88;;;;;;;;;;8349655;28;20672;-93
2023/06/10 21:30:22;;;;;;;19.50;13.13;;;;;;;;;;8357320;28;20056;-90
2023/06/10 21:34:26;;;;;;;18.45;13.57;;;;;;;;;;8357211;28;20050;-90
2023/06/10 21:38:29;;;;;;;18.67;13.70;;;;;;;;;;8398106;28;20056;-90
2023/06/10 21:42:32;;;;;;;21.58;14.65;;;;;;;;;;8410748;28;20044;-89
2023/06/10 21:46:35;;;;;;;19.75;13.90;;;;;;;;;;8410020;28;20064;-90
2023/06/10 21:50:41;;;;;;;21.25;14.45;;;;;;;;;;8415390;28;20048;-90
2023/06/10 21:54:45;;;;;;;21.08;15.05;;;;;;;;;;8409709;28;20090;-90
2023/06/10 21:58:49;;;;;;;24.05;15.23;;;;;;;;;;8422134;28;20041;-90
2023/06/10 22:02:54;;;;;;;33.25;18.52;;;;;;;;;;8419021;28;20083;-90
2023/06/10 22:06:58;;;;;;;34.60;19.50;;;;;;;;;;8394866;28;20418;-89
2023/06/10 22:11:02;;;;;;;31.90;19.63;;;;;;;;;;8422765;28;20047;-90
2023/06/10 22:15:06;;;;;;;30.55;17.60;;;;;;;;;;8415522;28;20090;-90
2023/06/10 22:19:09;;;;;;;22.30;15.27;;;;;;;;;;8427258;28;20045;-89
2023/06/10 22:23:20;;;;;;;20.50;15.05;;;;;;;;;;8424572;28;20043;-90
2023/06/10 22:27:25;;;;;;;19.83;14.43;;;;;;;;;;8412090;28;20497;-90
2023/06/10 22:31:29;;;;;;;18.35;13.18;;;;;;;;;;8410602;28;20040;-90
2023/06/10 22:35:32;;;;;;;19.10;14.27;;;;;;;;;;8407808;28;21596;-89
2023/06/10 22:39:36;;;;;;;18.63;14.25;;;;;;;;;;8406415;28;20064;-90
2023/06/10 22:43:39;;;;;;;22.92;15.68;;;;;;;;;;8407471;28;20088;-90
2023/06/10 22:47:42;;;;;;;34.83;18.20;;;;;;;;;;8411354;28;20097;-90
2023/06/10 22:51:46;;;;;;;41.38;21.98;;;;;;;;;;8427130;28;20068;-90
2023/06/10 22:55:51;;;;;;;32.58;20.00;;;;;;;;;;8422998;28;20119;-90
2023/06/10 22:59:56;;;;;;;29.33;18.27;;;;;;;;;;8435108;28;20380;-90
2023/06/10 23:04:00;;;;;;;30.25;19.83;;;;;;;;;;8427781;28;20040;-90
2023/06/10 23:08:03;;;;;;;33.25;20.45;;;;;;;;;;8431057;28;20068;-89
2023/06/10 23:12:10;;;;;;;25.58;17.60;;;;;;;;;;8430704;28;20123;-90
2023/06/10 23:16:13;;;;;;;25.15;16.33;;;;;;;;;;8436870;28;20649;-90
2023/06/10 23:20:20;;;;;;;19.88;15.18;;;;;;;;;;8434001;28;20044;-90
2023/06/10 23:24:28;;;;;;;20.75;15.18;;;;;;;;;;8434340;28;20055;-90
2023/06/10 23:28:33;;;;;;;19.45;14.32;;;;;;;;;;8425995;28;20048;-90
2023/06/10 23:32:36;;;;;;;18.73;13.55;;;;;;;;;;8418892;28;20067;-89
2023/06/10 23:36:40;;;;;;;18.92;14.38;;;;;;;;;;8421828;28;20487;-90
2023/06/10 23:40:45;;;;;;;21.98;15.13;;;;;;;;;;8432017;28;20055;-90
2023/06/10 23:44:49;;;;;;;19.83;15.48;;;;;;;;;;8415064;28;20067;-90
2023/06/10 23:48:52;;;;;;;22.13;15.68;;;;;;;;;;8433431;28;20123;-89
2023/06/10 23:52:56;;;;;;;20.75;14.30;;;;;;;;;;8433726;28;20119;-90
2023/06/10 23:57:02;;;;;;;22.95;15.93;;;;;;;;;;8420239;28;20052;-90
